Time;durP1;ratioP1;P1;durP2;ratioP2;P2;SDS_P1;SDS_P2;PMS_P1;PMS_P2;Temp;Humidity;BMP_temperature;BMP_pressure;BME280_temperature;BME280_humidity;BME280_pressure;Samples;Min_cycle;Max_cycle;Signal;HPM_P1;HPM_P2
2021/07/02 00:00:42;;;;;;;3.38;2.10;;;;;;;;;;4951101;28;20106;-69
2021/07/02 00:03:08;;;;;;;5.80;2.05;;;;;;;;;;4952417;28;20413;-63
2021/07/02 00:05:34;;;;;;;3.53;2.00;;;;;;;;;;4951857;29;20458;-68
2021/07/02 00:08:00;;;;;;;5.70;2.20;;;;;;;;;;4953075;29;20138;-65
2021/07/02 00:10:29;;;;;;;7.50;2.13;;;;;;;;;;4951272;28;20034;-63
2021/07/02 00:12:55;;;;;;;3.55;1.70;;;;;;;;;;4953162;29;20414;-64
2021/07/02 00:15:21;;;;;;;5.25;1.70;;;;;;;;;;4949471;29;20043;-63
2021/07/02 00:17:49;;;;;;;2.83;2.13;;;;;;;;;;4951889;29;20039;-69
2021/07/02 00:20:15;;;;;;;6.40;1.90;;;;;;;;;;4951789;28;20061;-70
2021/07/02 00:22:42;;;;;;;3.58;1.70;;;;;;;;;;4951453;28;20027;-63
2021/07/02 00:25:08;;;;;;;3.67;1.73;;;;;;;;;;4948938;29;20094;-71
2021/07/02 00:27:34;;;;;;;1.63;1.40;;;;;;;;;;4952994;29;20030;-70
2021/07/02 00:30:00;;;;;;;10.27;1.95;;;;;;;;;;4952062;29;20477;-64
2021/07/02 00:32:26;;;;;;;3.15;1.67;;;;;;;;;;4952529;28;20114;-64
2021/07/02 00:34:53;;;;;;;5.88;1.70;;;;;;;;;;4951975;28;20047;-69
2021/07/02 00:37:19;;;;;;;8.75;1.98;;;;;;;;;;4954410;28;20043;-63
2021/07/02 00:39:45;;;;;;;5.15;1.67;;;;;;;;;;4949984;29;20444;-67
2021/07/02 00:42:11;;;;;;;6.10;1.60;;;;;;;;;;4951980;29;20035;-70
2021/07/02 00:44:47;;;;;;;3.58;1.80;;;;;;;;;;4952131;28;20023;-63
2021/07/02 00:47:14;;;;;;;9.43;1.90;;;;;;;;;;4945117;28;20404;-68
2021/07/02 00:49:40;;;;;;;3.00;1.98;;;;;;;;;;4951623;29;20098;-63
2021/07/02 00:52:14;;;;;;;6.28;1.90;;;;;;;;;;4946176;29;20807;-70
2021/07/02 00:54:40;;;;;;;6.20;1.92;;;;;;;;;;4953843;29;20031;-69
2021/07/02 00:57:09;;;;;;;2.75;1.52;;;;;;;;;;4951076;29;20031;-69
2021/07/02 00:59:35;;;;;;;2.95;1.67;;;;;;;;;;4955505;28;20034;-68
2021/07/02 01:02:01;;;;;;;4.68;2.15;;;;;;;;;;4954757;28;20051;-63
2021/07/02 01:04:28;;;;;;;4.07;1.58;;;;;;;;;;4949961;29;20493;-67
2021/07/02 01:06:55;;;;;;;4.88;1.88;;;;;;;;;;4955102;29;20035;-70
2021/07/02 01:09:21;;;;;;;4.50;2.00;;;;;;;;;;4954537;28;20031;-63
2021/07/02 01:11:47;;;;;;;5.38;1.92;;;;;;;;;;4952503;28;20035;-70
2021/07/02 01:14:13;;;;;;;5.22;1.65;;;;;;;;;;4955554;29;20061;-63
2021/07/02 01:16:40;;;;;;;3.47;1.45;;;;;;;;;;4951644;29;20066;-66
2021/07/02 01:19:06;;;;;;;2.40;1.70;;;;;;;;;;4953610;29;20031;-69
2021/07/02 01:21:34;;;;;;;5.03;1.70;;;;;;;;;;4947691;29;20024;-69
2021/07/02 01:24:00;;;;;;;2.28;1.52;;;;;;;;;;4948108;29;20034;-65
2021/07/02 01:26:26;;;;;;;4.90;1.48;;;;;;;;;;4946357;29;20019;-69
2021/07/02 01:28:55;;;;;;;1.83;1.63;;;;;;;;;;4952742;29;20123;-70
2021/07/02 01:31:21;;;;;;;5.40;1.42;;;;;;;;;;4951771;28;20519;-68
2021/07/02 01:33:47;;;;;;;4.32;1.48;;;;;;;;;;4955103;29;20027;-69
2021/07/02 01:36:19;;;;;;;4.60;1.77;;;;;;;;;;4954366;28;20047;-70
2021/07/02 01:38:45;;;;;;;5.05;1.65;;;;;;;;;;4953654;29;20035;-63
2021/07/02 01:41:11;;;;;;;4.05;1.33;;;;;;;;;;4955252;29;20403;-63
2021/07/02 01:43:40;;;;;;;5.22;1.70;;;;;;;;;;4954571;29;20524;-63
2021/07/02 01:46:06;;;;;;;3.63;1.25;;;;;;;;;;4951179;29;20031;-70
2021/07/02 01:48:32;;;;;;;4.25;1.42;;;;;;;;;;4953421;29;20082;-64
2021/07/02 01:50:58;;;;;;;4.25;1.55;;;;;;;;;;4954959;29;20133;-65
2021/07/02 01:53:27;;;;;;;1.67;1.40;;;;;;;;;;4951371;29;20030;-66
2021/07/02 01:55:53;;;;;;;3.80;1.45;;;;;;;;;;4948348;29;20031;-63
2021/07/02 01:58:19;;;;;;;2.30;1.23;;;;;;;;;;4953047;28;20027;-70
2021/07/02 02:00:45;;;;;;;4.70;1.25;;;;;;;;;;4954454;28;20038;-70
2021/07/02 02:03:12;;;;;;;5.60;1.55;;;;;;;;;;4949483;29;20126;-63
2021/07/02 02:05:38;;;;;;;2.38;1.13;;;;;;;;;;4953792;28;20023;-69
2021/07/02 02:08:05;;;;;;;5.90;1.70;;;;;;;;;;4954207;29;20114;-70
2021/07/02 02:10:31;;;;;;;2.38;1.27;;;;;;;;;;4952772;28;20028;-69
2021/07/02 02:12:57;;;;;;;3.58;1.50;;;;;;;;;;4954825;29;20041;-70
2021/07/02 02:15:23;;;;;;;2.95;1.55;;;;;;;;;;4954071;29;20397;-63
2021/07/02 02:17:49;;;;;;;4.65;1.38;;;;;;;;;;4953563;29;20031;-63
2021/07/02 02:20:15;;;;;;;3.25;1.40;;;;;;;;;;4953448;29;20093;-63
2021/07/02 02:22:44;;;;;;;2.75;1.60;;;;;;;;;;4953900;29;20019;-66
2021/07/02 02:25:10;;;;;;;3.75;1.50;;;;;;;;;;4947165;29;20035;-71
2021/07/02 02:27:36;;;;;;;8.45;1.75;;;;;;;;;;4949999;28;20031;-64
2021/07/02 02:30:04;;;;;;;8.45;1.80;;;;;;;;;;4950939;29;20028;-70
2021/07/02 02:32:30;;;;;;;3.30;1.33;;;;;;;;;;4954393;29;20474;-64
2021/07/02 02:34:56;;;;;;;3.63;1.80;;;;;;;;;;4946760;29;20502;-63
2021/07/02 02:37:22;;;;;;;3.03;1.77;;;;;;;;;;4952599;28;20167;-64
2021/07/02 02:39:48;;;;;;;8.05;1.58;;;;;;;;;;4950521;29;20034;-67
2021/07/02 02:42:14;;;;;;;4.85;1.70;;;;;;;;;;4954668;29;20039;-66
2021/07/02 02:44:40;;;;;;;2.40;1.42;;;;;;;;;;4952754;29;20605;-63
2021/07/02 02:47:06;;;;;;;4.65;1.55;;;;;;;;;;4944039;28;20497;-63
2021/07/02 02:49:32;;;;;;;3.80;1.90;;;;;;;;;;4952142;29;20034;-63
2021/07/02 02:51:58;;;;;;;4.05;1.50;;;;;;;;;;4953691;29;20481;-67
2021/07/02 02:54:24;;;;;;;2.53;1.50;;;;;;;;;;4951255;29;20114;-70
2021/07/02 02:57:08;;;;;;;2.50;1.30;;;;;;;;;;4953240;28;20039;-63
2021/07/02 02:59:35;;;;;;;3.08;1.50;;;;;;;;;;4951862;28;20394;-62
2021/07/02 03:02:05;;;;;;;5.95;1.42;;;;;;;;;;4953400;28;20043;-68
2021/07/02 03:04:32;;;;;;;3.13;1.63;;;;;;;;;;4948860;29;20019;-63
2021/07/02 03:06:58;;;;;;;4.47;1.60;;;;;;;;;;4952047;29;20074;-63
2021/07/02 03:09:24;;;;;;;4.63;1.70;;;;;;;;;;4950832;29;20393;-62
2021/07/02 03:11:53;;;;;;;4.03;1.52;;;;;;;;;;4950456;29;20035;-68
2021/07/02 03:14:22;;;;;;;1.92;1.30;;;;;;;;;;4953126;28;20050;-63
2021/07/02 03:16:51;;;;;;;1.95;1.45;;;;;;;;;;4951061;28;20076;-69
2021/07/02 03:19:18;;;;;;;2.13;1.38;;;;;;;;;;4953322;29;20027;-70
2021/07/02 03:21:44;;;;;;;6.68;1.60;;;;;;;;;;4952231;28;20066;-67
2021/07/02 03:24:10;;;;;;;3.63;1.70;;;;;;;;;;4947523;28;20042;-70
2021/07/02 03:26:36;;;;;;;6.78;1.58;;;;;;;;;;4953784;29;20027;-63
2021/07/02 03:29:03;;;;;;;2.83;1.50;;;;;;;;;;4949628;29;20430;-70
2021/07/02 03:31:29;;;;;;;2.03;1.42;;;;;;;;;;4952579;29;20030;-70
2021/07/02 03:33:55;;;;;;;1.95;1.48;;;;;;;;;;4952899;29;20035;-63
2021/07/02 03:36:21;;;;;;;3.03;1.42;;;;;;;;;;4954025;28;20561;-69
2021/07/02 03:38:47;;;;;;;4.30;1.65;;;;;;;;;;4951009;28;20134;-66
2021/07/02 03:41:13;;;;;;;3.40;1.60;;;;;;;;;;4951771;29;20039;-67
2021/07/02 03:43:39;;;;;;;3.50;1.67;;;;;;;;;;4949925;29;20062;-70
2021/07/02 03:46:15;;;;;;;1.48;1.30;;;;;;;;;;4945381;28;20031;-63
2021/07/02 03:48:41;;;;;;;3.13;1.67;;;;;;;;;;4951936;28;20087;-70
2021/07/02 03:51:09;;;;;;;2.92;1.65;;;;;;;;;;4951336;29;20034;-64
2021/07/02 03:53:36;;;;;;;2.10;1.30;;;;;;;;;;4952227;29;20049;-63
2021/07/02 03:56:02;;;;;;;3.22;1.40;;;;;;;;;;4936895;29;20035;-68
2021/07/02 03:58:29;;;;;;;3.75;1.30;;;;;;;;;;4949049;29;20043;-67
2021/07/02 04:00:55;;;;;;;2.85;1.70;;;;;;;;;;4952224;28;21503;-69
2021/07/02 04:03:21;;;;;;;1.80;1.63;;;;;;;;;;4946697;29;20083;-70
2021/07/02 04:05:47;;;;;;;2.38;1.30;;;;;;;;;;4950233;29;20034;-62
2021/07/02 04:08:16;;;;;;;2.17;1.48;;;;;;;;;;4959000;28;20126;-69
2021/07/02 04:10:42;;;;;;;3.28;1.70;;;;;;;;;;4951244;29;20054;-69
2021/07/02 04:13:08;;;;;;;2.55;1.30;;;;;;;;;;4947571;28;20031;-65
2021/07/02 04:15:34;;;;;;;3.20;1.90;;;;;;;;;;4951901;29;20031;-66
2021/07/02 04:18:01;;;;;;;4.05;1.30;;;;;;;;;;4951934;29;20082;-67
2021/07/02 04:20:27;;;;;;;3.22;1.27;;;;;;;;;;4951270;29;20812;-69
2021/07/02 04:22:53;;;;;;;1.63;1.30;;;;;;;;;;4951139;28;20031;-72
2021/07/02 04:25:19;;;;;;;4.68;1.67;;;;;;;;;;4950418;28;20028;-68
2021/07/02 04:27:52;;;;;;;3.03;1.48;;;;;;;;;;4954299;28;20094;-72
2021/07/02 04:30:18;;;;;;;3.60;1.63;;;;;;;;;;4954525;28;20548;-65
2021/07/02 04:32:52;;;;;;;3.85;1.40;;;;;;;;;;4955759;28;20031;-73
2021/07/02 04:35:18;;;;;;;2.95;1.80;;;;;;;;;;4938830;29;20030;-64
2021/07/02 04:37:45;;;;;;;1.50;1.38;;;;;;;;;;4956054;28;20027;-65
2021/07/02 04:40:12;;;;;;;3.60;1.70;;;;;;;;;;4953825;28;20106;-66
2021/07/02 04:42:38;;;;;;;2.90;1.58;;;;;;;;;;4952593;29;20031;-62
2021/07/02 04:45:05;;;;;;;4.03;1.80;;;;;;;;;;4952290;28;20705;-68
2021/07/02 04:47:32;;;;;;;4.43;1.52;;;;;;;;;;4956532;28;20491;-62
2021/07/02 04:50:00;;;;;;;6.15;1.73;;;;;;;;;;4956225;29;20027;-69
2021/07/02 04:52:26;;;;;;;5.63;1.55;;;;;;;;;;4955636;29;20051;-61
2021/07/02 04:54:52;;;;;;;2.72;1.40;;;;;;;;;;4956759;29;20110;-66
2021/07/02 04:57:18;;;;;;;2.10;1.50;;;;;;;;;;4950002;29;20464;-65
2021/07/02 04:59:46;;;;;;;4.47;1.70;;;;;;;;;;4948180;29;20050;-63
2021/07/02 05:02:12;;;;;;;2.95;1.70;;;;;;;;;;4950249;28;20047;-69
2021/07/02 05:04:38;;;;;;;2.33;1.55;;;;;;;;;;4956127;29;20034;-61
2021/07/02 05:07:07;;;;;;;6.93;1.75;;;;;;;;;;4954418;29;20058;-68
2021/07/02 05:09:35;;;;;;;3.05;1.67;;;;;;;;;;4955544;29;20061;-69
2021/07/02 05:12:01;;;;;;;2.67;1.63;;;;;;;;;;4955484;29;20035;-68
2021/07/02 05:14:27;;;;;;;2.17;1.80;;;;;;;;;;4955241;29;20027;-62
2021/07/02 05:16:53;;;;;;;3.38;1.70;;;;;;;;;;4950354;29;20039;-70
2021/07/02 05:19:19;;;;;;;6.20;1.80;;;;;;;;;;4949322;29;20020;-66
2021/07/02 05:21:45;;;;;;;4.28;1.67;;;;;;;;;;4948792;29;20031;-67
2021/07/02 05:24:11;;;;;;;4.68;2.05;;;;;;;;;;4954687;29;20050;-69
2021/07/02 05:26:37;;;;;;;3.90;1.83;;;;;;;;;;4953725;29;20094;-64
2021/07/02 05:29:04;;;;;;;6.50;2.35;;;;;;;;;;4955419;29;20389;-68
2021/07/02 05:31:30;;;;;;;2.90;1.70;;;;;;;;;;4952240;29;20039;-68
2021/07/02 05:33:56;;;;;;;3.70;1.60;;;;;;;;;;4954658;29;20031;-67
2021/07/02 05:36:24;;;;;;;3.70;1.55;;;;;;;;;;4954167;29;20066;-81
2021/07/02 05:38:50;;;;;;;1.73;1.60;;;;;;;;;;4953701;29;20046;-81
2021/07/02 05:41:16;;;;;;;2.30;1.70;;;;;;;;;;4954005;28;20032;-81
2021/07/02 05:43:45;;;;;;;1.63;1.50;;;;;;;;;;4954730;29;20015;-84
2021/07/02 05:46:12;;;;;;;4.97;1.95;;;;;;;;;;4936961;29;20802;-80
2021/07/02 05:48:38;;;;;;;4.45;1.65;;;;;;;;;;4955481;29;20078;-82
2021/07/02 05:51:04;;;;;;;4.65;2.00;;;;;;;;;;4951024;28;20489;-86
2021/07/02 05:53:31;;;;;;;4.05;1.70;;;;;;;;;;4941885;28;20374;-87
2021/07/02 05:55:57;;;;;;;4.82;1.63;;;;;;;;;;4938032;29;20027;-83
2021/07/02 05:58:23;;;;;;;3.30;1.60;;;;;;;;;;4953712;29;20046;-75
2021/07/02 06:00:49;;;;;;;5.30;2.00;;;;;;;;;;4956010;28;20031;-69
2021/07/02 06:03:15;;;;;;;5.32;2.47;;;;;;;;;;4954793;29;20028;-76
2021/07/02 06:05:41;;;;;;;1.80;1.45;;;;;;;;;;4951322;28;20055;-68
2021/07/02 06:08:10;;;;;;;5.85;2.10;;;;;;;;;;4950645;29;20086;-67
2021/07/02 06:10:36;;;;;;;4.07;1.70;;;;;;;;;;4950639;29;20539;-68
2021/07/02 06:13:02;;;;;;;4.63;1.70;;;;;;;;;;4948136;29;20046;-88
2021/07/02 06:15:32;;;;;;;2.00;1.60;;;;;;;;;;4948190;29;20082;-80
2021/07/02 06:18:04;;;;;;;2.35;1.70;;;;;;;;;;4953102;29;20501;-81
2021/07/02 06:20:31;;;;;;;3.83;1.70;;;;;;;;;;4953371;28;21667;-75
2021/07/02 06:22:57;;;;;;;3.28;1.70;;;;;;;;;;4952592;28;20054;-81
2021/07/02 06:25:23;;;;;;;3.00;1.48;;;;;;;;;;4951195;29;20047;-78
2021/07/02 06:27:49;;;;;;;3.80;1.45;;;;;;;;;;4952916;29;20042;-76
2021/07/02 06:30:15;;;;;;;3.15;1.40;;;;;;;;;;4953815;28;20130;-74
2021/07/02 06:32:41;;;;;;;3.10;1.70;;;;;;;;;;4953806;29;20034;-72
2021/07/02 06:35:08;;;;;;;1.90;1.58;;;;;;;;;;4954691;29;20057;-73
2021/07/02 06:37:36;;;;;;;4.22;1.60;;;;;;;;;;4950265;29;20039;-73
2021/07/02 06:40:03;;;;;;;2.40;1.77;;;;;;;;;;4953292;29;20035;-80
2021/07/02 06:42:29;;;;;;;2.97;1.42;;;;;;;;;;4935736;29;20558;-74
2021/07/02 06:44:55;;;;;;;2.05;1.80;;;;;;;;;;4953007;28;20122;-64
2021/07/02 06:47:24;;;;;;;1.85;1.60;;;;;;;;;;4947490;29;20485;-67
2021/07/02 06:49:50;;;;;;;3.30;1.67;;;;;;;;;;4955728;28;20065;-77
2021/07/02 06:52:18;;;;;;;3.72;1.70;;;;;;;;;;4950325;29;20038;-73
2021/07/02 06:54:44;;;;;;;2.22;1.70;;;;;;;;;;4954100;28;20513;-78
2021/07/02 06:57:12;;;;;;;2.80;1.67;;;;;;;;;;4953235;29;20480;-79
2021/07/02 06:59:39;;;;;;;1.55;1.45;;;;;;;;;;4953711;29;20027;-74
2021/07/02 07:02:07;;;;;;;3.08;1.45;;;;;;;;;;4944956;29;20051;-72
2021/07/02 07:04:35;;;;;;;1.70;1.40;;;;;;;;;;4952225;28;20027;-83
2021/07/02 07:07:01;;;;;;;1.60;1.50;;;;;;;;;;4938617;29;20027;-74
2021/07/02 07:09:27;;;;;;;3.97;1.65;;;;;;;;;;4953320;29;20019;-87
2021/07/02 07:11:55;;;;;;;2.13;1.92;;;;;;;;;;4959255;28;20045;-81
2021/07/02 07:14:21;;;;;;;2.63;1.67;;;;;;;;;;4952238;29;20089;-75
2021/07/02 07:16:47;;;;;;;3.78;1.67;;;;;;;;;;4951438;29;20034;-88
2021/07/02 07:19:13;;;;;;;1.63;1.50;;;;;;;;;;4948035;29;20027;-81
2021/07/02 07:21:39;;;;;;;4.53;1.70;;;;;;;;;;4953649;29;20038;-86
2021/07/02 07:24:05;;;;;;;1.63;1.50;;;;;;;;;;4956500;28;20027;-83
2021/07/02 07:26:32;;;;;;;1.70;1.60;;;;;;;;;;4949938;29;20159;-82
2021/07/02 07:28:58;;;;;;;2.85;1.80;;;;;;;;;;4949678;29;20398;-82
2021/07/02 07:31:26;;;;;;;2.53;1.73;;;;;;;;;;4938858;29;20027;-82
2021/07/02 07:33:57;;;;;;;1.60;1.48;;;;;;;;;;4950583;29;20046;-70
2021/07/02 07:36:24;;;;;;;3.67;1.73;;;;;;;;;;4944376;29;20031;-72
2021/07/02 07:38:50;;;;;;;2.47;1.55;;;;;;;;;;4948760;29;20045;-71
2021/07/02 07:41:18;;;;;;;4.88;1.35;;;;;;;;;;4952411;29;20023;-71
2021/07/02 07:43:44;;;;;;;3.58;1.73;;;;;;;;;;4952252;29;20039;-71
2021/07/02 07:46:11;;;;;;;3.55;1.80;;;;;;;;;;4930004;29;20126;-71
2021/07/02 07:48:37;;;;;;;2.72;1.80;;;;;;;;;;4948601;29;20039;-71
2021/07/02 07:51:15;;;;;;;6.32;1.75;;;;;;;;;;4951688;29;20029;-69
2021/07/02 07:53:42;;;;;;;3.97;1.50;;;;;;;;;;4949688;29;20035;-75
2021/07/02 07:56:08;;;;;;;3.55;1.40;;;;;;;;;;4946000;29;20043;-80
2021/07/02 07:58:34;;;;;;;2.72;1.48;;;;;;;;;;4952496;29;20027;-75
2021/07/02 08:01:00;;;;;;;2.00;1.60;;;;;;;;;;4952425;28;20035;-92
2021/07/02 08:03:26;;;;;;;3.80;1.60;;;;;;;;;;4953884;28;20023;-80
2021/07/02 08:05:52;;;;;;;3.13;1.73;;;;;;;;;;4947950;28;20479;-81
2021/07/02 08:08:19;;;;;;;2.08;1.48;;;;;;;;;;4953475;29;20536;-87
2021/07/02 08:10:45;;;;;;;1.52;1.42;;;;;;;;;;4950708;29;20035;-84
2021/07/02 08:13:18;;;;;;;2.70;1.70;;;;;;;;;;4950381;29;20393;-69
2021/07/02 08:15:53;;;;;;;;;;;;;;;;;;4953054;29;20082;-74
2021/07/02 08:18:35;;;;;;;3.78;1.67;;;;;;;;;;4950920;28;19914;-80
2021/07/02 08:21:02;;;;;;;1.77;1.57;;;;;;;;;;4940829;28;20421;-69
2021/07/02 08:23:56;;;;;;;2.90;1.83;;;;;;;;;;4948911;29;20288;-70
2021/07/02 08:27:06;;;;;;;6.88;1.50;;;;;;;;;;4949654;29;20019;-71
2021/07/02 08:29:36;;;;;;;1.90;1.40;;;;;;;;;;4935234;29;20536;-70
2021/07/02 08:32:03;;;;;;;2.78;1.10;;;;;;;;;;4950953;28;20059;-71
2021/07/02 08:34:29;;;;;;;2.80;1.60;;;;;;;;;;4950635;29;20037;-69
2021/07/02 08:37:04;;;;;;;3.80;1.60;;;;;;;;;;4947992;28;20544;-70
2021/07/02 08:39:30;;;;;;;1.45;1.35;;;;;;;;;;4945568;28;20039;-72
2021/07/02 08:41:56;;;;;;;2.15;1.30;;;;;;;;;;4954207;28;20058;-71
2021/07/02 08:44:22;;;;;;;3.03;1.38;;;;;;;;;;4951312;28;20027;-70
2021/07/02 08:46:50;;;;;;;4.00;1.50;;;;;;;;;;4954617;28;20038;-88
2021/07/02 08:49:17;;;;;;;1.85;1.20;;;;;;;;;;4954161;28;20106;-86
2021/07/02 08:51:43;;;;;;;2.95;1.40;;;;;;;;;;4941989;29;20193;-89
2021/07/02 08:54:14;;;;;;;3.35;1.38;;;;;;;;;;4949415;28;20027;-86
2021/07/02 08:56:55;;;;;;;1.67;1.52;;;;;;;;;;4950584;28;20043;-82
2021/07/02 08:59:42;;;;;;;5.18;1.60;;;;;;;;;;4949718;28;20031;-71
2021/07/02 09:02:26;;;;;;;2.67;1.40;;;;;;;;;;4934335;29;20520;-70
2021/07/02 09:05:22;;;;;;;4.00;1.75;;;;;;;;;;4947191;29;20035;-71
2021/07/02 09:07:48;;;;;;;3.13;1.85;;;;;;;;;;4950257;29;20117;-71
2021/07/02 09:10:15;;;;;;;6.80;1.75;;;;;;;;;;4951517;29;20038;-90
2021/07/02 09:12:50;;;;;;;5.10;1.70;;;;;;;;;;4952483;29;20492;-86
2021/07/02 09:15:16;;;;;;;4.75;1.60;;;;;;;;;;4953631;28;20035;-88
2021/07/02 09:17:51;;;;;;;2.65;1.35;;;;;;;;;;4936060;29;20059;-67
2021/07/02 09:20:19;;;;;;;4.43;1.50;;;;;;;;;;4953486;28;20078;-86
2021/07/02 09:22:46;;;;;;;1.65;1.35;;;;;;;;;;4936912;29;20118;-85
2021/07/02 09:25:20;;;;;;;2.00;1.38;;;;;;;;;;4953896;28;20079;-84
2021/07/02 09:27:46;;;;;;;4.18;1.40;;;;;;;;;;4958898;28;20075;-91
2021/07/02 09:30:17;;;;;;;2.83;1.30;;;;;;;;;;4954929;28;20031;-73
2021/07/02 09:32:44;;;;;;;1.58;1.30;;;;;;;;;;4940437;29;20058;-70
2021/07/02 09:35:12;;;;;;;2.15;1.35;;;;;;;;;;4954242;28;20039;-72
2021/07/02 09:37:48;;;;;;;3.88;1.50;;;;;;;;;;4937345;29;20404;-73
2021/07/02 09:40:22;;;;;;;2.35;1.50;;;;;;;;;;4950753;28;20034;-72
2021/07/02 09:42:58;;;;;;;3.35;1.70;;;;;;;;;;4942297;29;20043;-89
2021/07/02 09:45:24;;;;;;;3.70;1.45;;;;;;;;;;4937684;29;20501;-84
2021/07/02 09:47:50;;;;;;;2.13;1.40;;;;;;;;;;4952364;28;20393;-79
2021/07/02 09:50:27;;;;;;;1.52;1.33;;;;;;;;;;4951860;29;20038;-75
2021/07/02 09:52:53;;;;;;;5.68;1.85;;;;;;;;;;4952857;29;20082;-80
2021/07/02 09:55:20;;;;;;;3.13;1.50;;;;;;;;;;4947253;29;20172;-68
2021/07/02 09:57:46;;;;;;;2.88;1.40;;;;;;;;;;4942223;29;20039;-70
2021/07/02 10:00:14;;;;;;;2.45;1.30;;;;;;;;;;4950398;29;20485;-71
2021/07/02 10:02:51;;;;;;;5.25;2.00;;;;;;;;;;4954171;29;20192;-70
2021/07/02 10:05:17;;;;;;;4.80;1.70;;;;;;;;;;4953854;29;20035;-70
2021/07/02 10:07:54;;;;;;;1.98;1.73;;;;;;;;;;4948818;29;20146;-72
2021/07/02 10:10:21;;;;;;;3.35;1.50;;;;;;;;;;4951286;29;20031;-94
2021/07/02 10:12:47;;;;;;;2.15;1.70;;;;;;;;;;4955440;28;20030;-92
2021/07/02 10:15:13;;;;;;;5.03;2.08;;;;;;;;;;4958514;28;20027;-77
2021/07/02 10:17:40;;;;;;;5.15;1.60;;;;;;;;;;4947497;29;20519;-82
2021/07/02 10:20:08;;;;;;;3.35;1.55;;;;;;;;;;4951923;29;20382;-76
2021/07/02 10:22:35;;;;;;;4.75;1.58;;;;;;;;;;4939097;28;20039;-70
2021/07/02 10:25:02;;;;;;;3.13;1.73;;;;;;;;;;4950207;28;20031;-70
2021/07/02 10:27:29;;;;;;;5.15;1.60;;;;;;;;;;4954577;29;20078;-71
2021/07/02 10:29:56;;;;;;;6.97;1.65;;;;;;;;;;4953769;29;20106;-71
2021/07/02 10:32:22;;;;;;;3.95;1.80;;;;;;;;;;4953995;29;20046;-70
2021/07/02 10:34:48;;;;;;;2.70;1.23;;;;;;;;;;4952431;29;20039;-70
2021/07/02 10:37:17;;;;;;;2.58;1.30;;;;;;;;;;4953800;28;20044;-72
2021/07/02 10:39:46;;;;;;;3.00;1.50;;;;;;;;;;4953909;29;20057;-71
2021/07/02 10:42:13;;;;;;;5.25;1.45;;;;;;;;;;4931143;29;20387;-68
2021/07/02 10:44:55;;;;;;;2.70;1.55;;;;;;;;;;4952232;29;20026;-72
2021/07/02 10:47:24;;;;;;;2.22;1.45;;;;;;;;;;4953266;29;20034;-74
2021/07/02 10:49:50;;;;;;;2.28;1.42;;;;;;;;;;4953121;29;20026;-66
2021/07/02 10:52:24;;;;;;;3.00;1.55;;;;;;;;;;4951569;29;20039;-82
2021/07/02 10:54:51;;;;;;;7.20;1.75;;;;;;;;;;4949840;29;20072;-85
2021/07/02 10:57:21;;;;;;;2.25;1.27;;;;;;;;;;4953527;29;20035;-81
2021/07/02 10:59:50;;;;;;;5.55;1.60;;;;;;;;;;4950966;28;20094;-92
2021/07/02 11:07:59;;;;;;;2.35;1.20;;;;;;;;;;4956449;28;20049;-84
2021/07/02 11:10:25;;;;;;;1.88;1.50;;;;;;;;;;4982625;28;20027;-84
2021/07/02 11:12:55;;;;;;;2.67;1.60;;;;;;;;;;4989636;28;20096;-83
2021/07/02 11:15:22;;;;;;;2.78;1.70;;;;;;;;;;4975821;28;20476;-67
2021/07/02 11:17:52;;;;;;;2.85;1.55;;;;;;;;;;4990233;28;20048;-68
2021/07/02 11:20:20;;;;;;;8.02;1.60;;;;;;;;;;4988077;28;20381;-85
2021/07/02 11:22:53;;;;;;;3.75;2.10;;;;;;;;;;4973901;28;20044;-84
2021/07/02 11:25:24;;;;;;;1.67;1.58;;;;;;;;;;4989095;28;20033;-87
2021/07/02 11:27:55;;;;;;;3.38;1.80;;;;;;;;;;4988375;28;20023;-79
2021/07/02 11:30:26;;;;;;;1.40;1.30;;;;;;;;;;4986021;28;20026;-76
2021/07/02 11:32:56;;;;;;;3.63;1.23;;;;;;;;;;4990082;28;20026;-69
2021/07/02 11:35:24;;;;;;;2.20;1.60;;;;;;;;;;4988536;28;20026;-68
2021/07/02 11:38:00;;;;;;;7.72;1.98;;;;;;;;;;4986694;28;20038;-70
2021/07/02 11:40:29;;;;;;;4.07;2.40;;;;;;;;;;4991858;28;20101;-70
2021/07/02 11:42:55;;;;;;;8.18;1.98;;;;;;;;;;4991379;28;20485;-69
2021/07/02 11:45:36;;;;;;;2.75;2.30;;;;;;;;;;4990332;28;20030;-75
2021/07/02 11:48:02;;;;;;;2.55;2.15;;;;;;;;;;4988583;28;20864;-87
2021/07/02 11:50:44;;;;;;;2.78;2.38;;;;;;;;;;4996851;28;20029;-92
2021/07/02 11:53:34;;;;;;;6.20;3.15;;;;;;;;;;4977175;28;20022;-88
2021/07/02 11:56:02;;;;;;;9.23;4.50;;;;;;;;;;4984189;28;20542;-77
2021/07/02 11:58:34;;;;;;;6.13;3.03;;;;;;;;;;4986089;28;20030;-83
2021/07/02 12:01:11;;;;;;;3.25;2.45;;;;;;;;;;4984982;28;20044;-82
2021/07/02 12:03:47;;;;;;;2.22;1.83;;;;;;;;;;4990521;28;20034;-67
2021/07/02 12:06:32;;;;;;;2.72;1.70;;;;;;;;;;4990516;28;20742;-70
2021/07/02 12:09:18;;;;;;;4.07;2.80;;;;;;;;;;4980105;28;20097;-71
2021/07/02 12:11:46;;;;;;;3.95;1.65;;;;;;;;;;4990892;28;20388;-64
2021/07/02 12:14:14;;;;;;;3.05;1.63;;;;;;;;;;4986595;28;20027;-70
2021/07/02 12:16:44;;;;;;;6.10;2.40;;;;;;;;;;4991267;28;20069;-69
2021/07/02 12:19:15;;;;;;;58.00;5.07;;;;;;;;;;4990554;28;20101;-65
2021/07/02 12:21:41;;;;;;;8.63;3.00;;;;;;;;;;4990176;28;20362;-66
2021/07/02 12:24:09;;;;;;;4.18;2.60;;;;;;;;;;4988179;28;20026;-67
2021/07/02 12:26:35;;;;;;;3.85;2.35;;;;;;;;;;4988365;28;20376;-66
2021/07/02 12:29:01;;;;;;;3.17;1.80;;;;;;;;;;4981283;28;20037;-70
2021/07/02 12:31:32;;;;;;;3.53;1.73;;;;;;;;;;4974654;28;20034;-66
2021/07/02 12:33:59;;;;;;;2.55;1.67;;;;;;;;;;4983331;28;20488;-72
2021/07/02 12:36:26;;;;;;;3.03;1.50;;;;;;;;;;4988645;28;20034;-68
2021/07/02 12:39:07;;;;;;;3.67;1.75;;;;;;;;;;4991453;28;20033;-69
2021/07/02 12:41:37;;;;;;;3.50;1.60;;;;;;;;;;4983578;28;20069;-66
2021/07/02 12:44:03;;;;;;;3.63;1.88;;;;;;;;;;4973443;28;20061;-65
2021/07/02 12:46:31;;;;;;;4.53;2.00;;;;;;;;;;4988951;28;20026;-70
2021/07/02 12:49:16;;;;;;;3.53;1.92;;;;;;;;;;4987513;28;20483;-68
2021/07/02 12:51:59;;;;;;;4.25;2.00;;;;;;;;;;4982459;28;20499;-66
2021/07/02 12:57:15;;;;;;;3.80;2.10;;;;;;;;;;4994309;28;20582;-68
2021/07/02 12:59:48;;;;;;;6.05;2.20;;;;;;;;;;4991896;28;20476;-69
2021/07/02 13:02:34;;;;;;;3.25;1.77;;;;;;;;;;4985729;28;20493;-68
2021/07/02 13:05:19;;;;;;;3.22;1.90;;;;;;;;;;4986089;28;20543;-76
2021/07/02 13:07:46;;;;;;;3.38;1.83;;;;;;;;;;4968146;28;20101;-69
2021/07/02 13:10:15;;;;;;;7.85;3.13;;;;;;;;;;4983626;28;20053;-77
2021/07/02 13:12:41;;;;;;;4.90;1.85;;;;;;;;;;4961447;28;20087;-72
2021/07/02 13:15:13;;;;;;;2.42;1.90;;;;;;;;;;4967309;28;20063;-78
2021/07/02 13:18:11;;;;;;;3.65;2.05;;;;;;;;;;4972936;28;20113;-69
2021/07/02 13:20:44;;;;;;;5.28;2.05;;;;;;;;;;4896417;29;20040;-86
2021/07/02 13:23:12;;;;;;;5.63;2.08;;;;;;;;;;4897691;29;20033;-85
2021/07/02 13:25:39;;;;;;;2.78;1.70;;;;;;;;;;4895108;29;20037;-82
2021/07/02 13:28:06;;;;;;;2.50;1.80;;;;;;;;;;4883640;29;20045;-83
2021/07/02 13:30:34;;;;;;;4.68;2.00;;;;;;;;;;4890260;29;20036;-79
2021/07/02 13:33:18;;;;;;;2.55;1.80;;;;;;;;;;4891935;29;20037;-71
2021/07/02 13:35:44;;;;;;;5.05;1.70;;;;;;;;;;4885268;29;20051;-69
2021/07/02 13:38:16;;;;;;;2.67;2.00;;;;;;;;;;4900818;29;20052;-70
2021/07/02 13:40:46;;;;;;;4.10;1.92;;;;;;;;;;4891726;29;20427;-76
2021/07/02 13:43:16;;;;;;;4.65;2.25;;;;;;;;;;4885105;29;20037;-75
2021/07/02 13:45:58;;;;;;;2.80;2.20;;;;;;;;;;4898559;29;20024;-85
2021/07/02 13:48:24;;;;;;;5.57;2.90;;;;;;;;;;4896158;29;20044;-70
2021/07/02 13:50:50;;;;;;;5.95;2.30;;;;;;;;;;4907757;29;20043;-74
2021/07/02 13:53:18;;;;;;;4.53;2.50;;;;;;;;;;4917253;29;20103;-68
2021/07/02 13:55:45;;;;;;;4.65;2.00;;;;;;;;;;4914223;29;20111;-72
2021/07/02 13:58:11;;;;;;;5.53;2.25;;;;;;;;;;4992380;28;20566;-78
2021/07/02 14:00:38;;;;;;;3.15;2.20;;;;;;;;;;4979878;28;20031;-68
2021/07/02 14:03:05;;;;;;;6.78;2.42;;;;;;;;;;5001170;28;20022;-69
2021/07/02 14:05:31;;;;;;;3.58;2.10;;;;;;;;;;4988952;28;20046;-70
2021/07/02 14:07:57;;;;;;;4.72;2.30;;;;;;;;;;4988304;28;20026;-70
2021/07/02 14:10:23;;;;;;;3.95;2.00;;;;;;;;;;4987990;28;20090;-72
2021/07/02 14:12:49;;;;;;;5.60;2.33;;;;;;;;;;4989244;28;20101;-70
2021/07/02 14:15:15;;;;;;;6.00;2.30;;;;;;;;;;4975369;28;20385;-72
2021/07/02 14:17:41;;;;;;;3.65;2.38;;;;;;;;;;4994685;28;20038;-72
2021/07/02 14:20:07;;;;;;;5.07;2.42;;;;;;;;;;4989927;28;20037;-68
2021/07/02 14:22:35;;;;;;;2.85;2.00;;;;;;;;;;4990960;28;20026;-69
2021/07/02 14:25:02;;;;;;;4.18;2.17;;;;;;;;;;4990186;28;20030;-67
2021/07/02 14:27:28;;;;;;;5.10;2.42;;;;;;;;;;4993326;28;20045;-68
2021/07/02 14:29:54;;;;;;;4.35;2.20;;;;;;;;;;4989436;28;20023;-69
2021/07/02 14:32:20;;;;;;;5.90;2.50;;;;;;;;;;5000463;28;20042;-69
2021/07/02 14:34:46;;;;;;;4.05;2.13;;;;;;;;;;4993235;28;20038;-68
2021/07/02 14:37:12;;;;;;;4.32;2.25;;;;;;;;;;4988717;28;20105;-69
2021/07/02 14:39:38;;;;;;;3.28;2.33;;;;;;;;;;4988641;28;20018;-69
2021/07/02 14:42:04;;;;;;;6.90;2.50;;;;;;;;;;4988093;28;20030;-79
2021/07/02 14:44:30;;;;;;;7.65;2.60;;;;;;;;;;4984232;28;20101;-69
2021/07/02 14:46:56;;;;;;;8.82;2.72;;;;;;;;;;4985192;28;20038;-80
2021/07/02 14:49:22;;;;;;;5.07;2.45;;;;;;;;;;4976003;28;20026;-78
2021/07/02 14:51:49;;;;;;;5.22;2.65;;;;;;;;;;4990224;28;20030;-77
2021/07/02 14:54:17;;;;;;;5.57;2.20;;;;;;;;;;4983228;28;20086;-82
2021/07/02 14:59:40;;;;;;;7.15;2.90;;;;;;;;;;4987863;28;20038;-79
2021/07/02 15:02:06;;;;;;;4.53;2.50;;;;;;;;;;4968722;28;20633;-71